sensor_id;sensor_type;location;lat;lon;timestamp;pressure;altitude;pressure_sealevel;temperature;humidity
56198;BME280;42700;42.524;12.052;2023-05-12T00:01:28;95886.34;;;15.12;100.00
56198;BME280;42700;42.524;12.052;2023-05-12T00:03:53;95797.81;;;15.08;100.00
56198;BME280;42700;42.524;12.052;2023-05-12T00:06:19;95746.47;;;15.06;100.00
56198;BME280;42700;42.524;12.052;2023-05-12T00:08:45;95414.72;;;14.92;100.00
56198;BME280;42700;42.524;12.052;2023-05-12T00:11:10;95627.47;;;14.99;100.00
56198;BME280;42700;42.524;12.052;2023-05-12T00:13:36;95121.84;;;14.76;100.00
56198;BME280;42700;42.524;12.052;2023-05-12T00:16:02;94982.41;;;14.69;100.00
56198;BME280;42700;42.524;12.052;2023-05-12T00:18:27;95336.66;;;14.80;100.00
56198;BME280;42700;42.524;12.052;2023-05-12T00:20:53;95235.38;;;14.73;100.00
56198;BME280;42700;42.524;12.052;2023-05-12T00:23:19;95164.84;;;14.69;100.00
56198;BME280;42700;42.524;12.052;2023-05-12T00:25:45;95051.34;;;14.62;100.00
56198;BME280;42700;42.524;12.052;2023-05-12T00:28:10;94952.50;;;14.56;100.00
56198;BME280;42700;42.524;12.052;2023-05-12T00:30:36;95213.16;;;14.63;100.00
56198;BME280;42700;42.524;12.052;2023-05-12T00:33:02;95020.31;;;14.55;100.00
56198;BME280;42700;42.524;12.052;2023-05-12T00:35:27;95118.59;;;14.58;100.00
56198;BME280;42700;42.524;12.052;2023-05-12T00:37:53;95056.63;;;14.51;100.00
56198;BME280;42700;42.524;12.052;2023-05-12T00:40:18;95227.28;;;14.58;100.00
56198;BME280;42700;42.524;12.052;2023-05-12T00:42:44;95429.25;;;14.64;100.00
56198;BME280;42700;42.524;12.052;2023-05-12T00:45:09;95670.00;;;14.73;100.00
56198;BME280;42700;42.524;12.052;2023-05-12T00:47:35;95063.03;;;14.50;100.00
56198;BME280;42700;42.524;12.052;2023-05-12T00:50:02;94736.28;;;14.31;100.00
56198;BME280;42700;42.524;12.052;2023-05-12T00:52:28;94677.09;;;14.24;100.00
56198;BME280;42700;42.524;12.052;2023-05-12T00:54:53;94941.56;;;14.32;100.00
56198;BME280;42700;42.524;12.052;2023-05-12T00:57:19;94920.72;;;14.29;100.00
56198;BME280;42700;42.524;12.052;2023-05-12T00:59:46;94856.41;;;14.26;100.00
56198;BME280;42700;42.524;12.052;2023-05-12T01:02:12;94779.56;;;14.17;100.00
56198;BME280;42700;42.524;12.052;2023-05-12T01:04:38;94733.16;;;14.13;100.00
56198;BME280;42700;42.524;12.052;2023-05-12T01:07:25;94868.69;;;14.16;100.00
56198;BME280;42700;42.524;12.052;2023-05-12T01:09:56;94855.09;;;14.13;100.00
56198;BME280;42700;42.524;12.052;2023-05-12T01:12:22;94934.88;;;14.14;100.00
56198;BME280;42700;42.524;12.052;2023-05-12T01:14:48;94917.81;;;14.10;100.00
56198;BME280;42700;42.524;12.052;2023-05-12T01:17:15;95151.56;;;14.16;100.00
56198;BME280;42700;42.524;12.052;2023-05-12T01:19:51;95098.19;;;14.11;100.00
56198;BME280;42700;42.524;12.052;2023-05-12T01:22:17;95926.53;;;14.44;100.00
56198;BME280;42700;42.524;12.052;2023-05-12T01:24:50;96234.22;;;14.58;100.00
56198;BME280;42700;42.524;12.052;2023-05-12T01:27:16;96259.66;;;14.61;100.00
56198;BME280;42700;42.524;12.052;2023-05-12T01:29:44;96279.38;;;14.60;100.00
56198;BME280;42700;42.524;12.052;2023-05-12T01:32:11;96273.81;;;14.61;100.00
56198;BME280;42700;42.524;12.052;2023-05-12T01:34:36;96427.03;;;14.67;100.00
56198;BME280;42700;42.524;12.052;2023-05-12T01:37:02;96473.81;;;14.69;100.00
56198;BME280;42700;42.524;12.052;2023-05-12T01:39:27;96474.66;;;14.70;100.00
56198;BME280;42700;42.524;12.052;2023-05-12T01:41:53;96596.63;;;14.76;100.00
56198;BME280;42700;42.524;12.052;2023-05-12T01:44:18;96411.56;;;14.69;100.00
56198;BME280;42700;42.524;12.052;2023-05-12T01:46:45;96428.16;;;14.71;100.00
56198;BME280;42700;42.524;12.052;2023-05-12T01:49:11;96588.38;;;14.77;100.00
56198;BME280;42700;42.524;12.052;2023-05-12T01:51:36;96338.63;;;14.68;100.00
56198;BME280;42700;42.524;12.052;2023-05-12T01:54:02;96370.44;;;14.70;100.00
56198;BME280;42700;42.524;12.052;2023-05-12T01:56:27;96339.44;;;14.69;100.00
56198;BME280;42700;42.524;12.052;2023-05-12T01:58:53;96429.81;;;14.72;100.00
56198;BME280;42700;42.524;12.052;2023-05-12T02:01:19;96519.34;;;14.74;100.00
56198;BME280;42700;42.524;12.052;2023-05-12T02:03:44;96477.91;;;14.72;100.00
56198;BME280;42700;42.524;12.052;2023-05-12T02:06:10;96600.34;;;14.75;100.00
56198;BME280;42700;42.524;12.052;2023-05-12T02:08:35;96536.69;;;14.72;100.00
56198;BME280;42700;42.524;12.052;2023-05-12T02:11:06;95720.88;;;14.39;100.00
56198;BME280;42700;42.524;12.052;2023-05-12T02:13:32;96338.75;;;14.62;100.00
56198;BME280;42700;42.524;12.052;2023-05-12T02:15:59;96592.22;;;14.70;100.00
56198;BME280;42700;42.524;12.052;2023-05-12T02:18:24;96590.34;;;14.70;100.00
56198;BME280;42700;42.524;12.052;2023-05-12T02:20:50;96420.50;;;14.63;100.00
56198;BME280;42700;42.524;12.052;2023-05-12T02:23:15;96566.75;;;14.67;100.00
56198;BME280;42700;42.524;12.052;2023-05-12T02:25:40;96479.28;;;14.63;100.00
56198;BME280;42700;42.524;12.052;2023-05-12T02:28:06;96721.06;;;14.72;100.00
56198;BME280;42700;42.524;12.052;2023-05-12T02:30:36;96651.22;;;14.68;100.00
56198;BME280;42700;42.524;12.052;2023-05-12T02:33:01;96745.91;;;14.72;100.00
56198;BME280;42700;42.524;12.052;2023-05-12T02:35:29;96628.22;;;14.67;100.00
56198;BME280;42700;42.524;12.052;2023-05-12T02:37:54;96455.69;;;14.60;100.00
56198;BME280;42700;42.524;12.052;2023-05-12T02:40:20;96298.41;;;14.51;100.00
56198;BME280;42700;42.524;12.052;2023-05-12T02:42:45;96516.34;;;14.59;100.00
56198;BME280;42700;42.524;12.052;2023-05-12T02:45:11;96811.31;;;14.70;100.00
56198;BME280;42700;42.524;12.052;2023-05-12T02:47:37;96458.81;;;14.56;100.00
56198;BME280;42700;42.524;12.052;2023-05-12T02:50:03;96548.38;;;14.59;100.00
56198;BME280;42700;42.524;12.052;2023-05-12T02:52:28;96797.34;;;14.68;100.00
56198;BME280;42700;42.524;12.052;2023-05-12T02:54:54;96844.41;;;14.69;100.00
56198;BME280;42700;42.524;12.052;2023-05-12T02:57:20;96841.75;;;14.69;100.00
56198;BME280;42700;42.524;12.052;2023-05-12T02:59:46;96827.78;;;14.67;100.00
56198;BME280;42700;42.524;12.052;2023-05-12T03:02:11;96919.81;;;14.71;100.00
56198;BME280;42700;42.524;12.052;2023-05-12T03:04:37;96753.44;;;14.64;100.00
56198;BME280;42700;42.524;12.052;2023-05-12T03:07:02;96469.97;;;14.53;100.00
56198;BME280;42700;42.524;12.052;2023-05-12T03:09:28;96823.47;;;14.66;100.00
56198;BME280;42700;42.524;12.052;2023-05-12T03:11:53;97031.63;;;14.74;100.00
56198;BME280;42700;42.524;12.052;2023-05-12T03:14:19;96920.88;;;14.70;100.00
56198;BME280;42700;42.524;12.052;2023-05-12T03:16:44;96791.63;;;14.64;100.00
56198;BME280;42700;42.524;12.052;2023-05-12T03:19:10;96985.59;;;14.72;100.00
56198;BME280;42700;42.524;12.052;2023-05-12T03:21:35;96735.75;;;14.63;100.00
56198;BME280;42700;42.524;12.052;2023-05-12T03:24:01;96834.16;;;14.66;100.00
56198;BME280;42700;42.524;12.052;2023-05-12T03:26:26;96863.56;;;14.66;100.00
56198;BME280;42700;42.524;12.052;2023-05-12T03:28:52;97125.75;;;14.76;100.00
56198;BME280;42700;42.524;12.052;2023-05-12T03:31:17;97126.81;;;14.75;100.00
56198;BME280;42700;42.524;12.052;2023-05-12T03:33:43;97101.09;;;14.74;100.00
56198;BME280;42700;42.524;12.052;2023-05-12T03:36:08;97006.16;;;14.71;100.00
56198;BME280;42700;42.524;12.052;2023-05-12T03:38:34;97047.06;;;14.72;100.00
56198;BME280;42700;42.524;12.052;2023-05-12T03:41:04;97072.75;;;14.73;100.00
56198;BME280;42700;42.524;12.052;2023-05-12T03:43:30;97164.22;;;14.75;100.00
56198;BME280;42700;42.524;12.052;2023-05-12T03:45:56;97032.88;;;14.71;100.00
56198;BME280;42700;42.524;12.052;2023-05-12T03:48:21;97014.41;;;14.70;100.00
56198;BME280;42700;42.524;12.052;2023-05-12T03:50:47;97184.53;;;14.76;100.00
56198;BME280;42700;42.524;12.052;2023-05-12T03:53:13;96824.97;;;14.62;100.00
56198;BME280;42700;42.524;12.052;2023-05-12T03:55:38;97119.22;;;14.72;100.00
56198;BME280;42700;42.524;12.052;2023-05-12T03:58:04;96991.59;;;14.67;100.00
56198;BME280;42700;42.524;12.052;2023-05-12T04:00:29;97308.72;;;14.80;100.00
56198;BME280;42700;42.524;12.052;2023-05-12T04:02:55;97268.84;;;14.79;100.00
56198;BME280;42700;42.524;12.052;2023-05-12T04:05:20;97276.84;;;14.79;100.00
56198;BME280;42700;42.524;12.052;2023-05-12T04:07:46;97296.38;;;14.79;100.00
56198;BME280;42700;42.524;12.052;2023-05-12T04:10:12;97468.25;;;14.86;100.00
56198;BME280;42700;42.524;12.052;2023-05-12T04:12:38;97149.81;;;14.76;100.00
56198;BME280;42700;42.524;12.052;2023-05-12T04:15:03;97552.34;;;14.90;100.00
56198;BME280;42700;42.524;12.052;2023-05-12T04:17:29;97696.72;;;14.97;100.00
56198;BME280;42700;42.524;12.052;2023-05-12T04:19:55;97919.94;;;15.08;100.00
56198;BME280;42700;42.524;12.052;2023-05-12T04:22:20;98225.56;;;15.23;100.00
56198;BME280;42700;42.524;12.052;2023-05-12T04:24:46;98394.63;;;15.34;100.00
56198;BME280;42700;42.524;12.052;2023-05-12T04:27:11;98526.47;;;15.42;100.00
56198;BME280;42700;42.524;12.052;2023-05-12T04:29:37;98586.47;;;15.48;100.00
56198;BME280;42700;42.524;12.052;2023-05-12T04:32:02;98643.75;;;15.54;100.00
56198;BME280;42700;42.524;12.052;2023-05-12T04:34:28;98691.38;;;15.58;100.00
56198;BME280;42700;42.524;12.052;2023-05-12T04:36:53;98390.03;;;15.49;100.00
56198;BME280;42700;42.524;12.052;2023-05-12T04:39:19;98413.75;;;15.52;100.00
56198;BME280;42700;42.524;12.052;2023-05-12T04:41:44;98206.59;;;15.46;100.00
56198;BME280;42700;42.524;12.052;2023-05-12T04:44:10;98376.75;;;15.56;100.00
56198;BME280;42700;42.524;12.052;2023-05-12T04:46:35;98553.09;;;15.65;100.00
56198;BME280;42700;42.524;12.052;2023-05-12T04:49:01;98668.13;;;15.74;100.00
56198;BME280;42700;42.524;12.052;2023-05-12T04:51:26;98366.09;;;15.62;100.00
56198;BME280;42700;42.524;12.052;2023-05-12T04:53:52;98440.25;;;15.68;100.00
56198;BME280;42700;42.524;12.052;2023-05-12T04:56:17;98383.41;;;15.66;100.00
56198;BME280;42700;42.524;12.052;2023-05-12T04:58:43;98259.66;;;15.64;100.00
56198;BME280;42700;42.524;12.052;2023-05-12T05:01:08;98262.31;;;15.64;100.00
56198;BME280;42700;42.524;12.052;2023-05-12T05:03:34;98538.88;;;15.80;100.00
56198;BME280;42700;42.524;12.052;2023-05-12T05:05:59;98705.94;;;15.94;100.00
56198;BME280;42700;42.524;12.052;2023-05-12T05:08:25;98759.59;;;16.00;100.00
56198;BME280;42700;42.524;12.052;2023-05-12T05:10:50;99153.59;;;16.22;100.00
56198;BME280;42700;42.524;12.052;2023-05-12T05:13:16;99294.88;;;16.36;100.00
56198;BME280;42700;42.524;12.052;2023-05-12T05:15:48;99159.19;;;16.35;100.00
56198;BME280;42700;42.524;12.052;2023-05-12T05:18:14;99356.16;;;16.48;100.00
56198;BME280;42700;42.524;12.052;2023-05-12T05:20:39;99548.38;;;16.64;100.00
56198;BME280;42700;42.524;12.052;2023-05-12T05:23:05;99651.44;;;16.77;100.00
56198;BME280;42700;42.524;12.052;2023-05-12T05:25:31;99666.56;;;16.87;100.00
56198;BME280;42700;42.524;12.052;2023-05-12T05:27:57;99820.53;;;17.02;100.00
56198;BME280;42700;42.524;12.052;2023-05-12T05:30:22;99852.75;;;17.10;100.00
56198;BME280;42700;42.524;12.052;2023-05-12T05:32:48;99393.16;;;17.00;100.00
56198;BME280;42700;42.524;12.052;2023-05-12T05:35:13;99643.69;;;17.15;100.00
56198;BME280;42700;42.524;12.052;2023-05-12T05:37:39;100134.75;;;17.43;100.00
56198;BME280;42700;42.524;12.052;2023-05-12T05:40:05;99696.53;;;17.31;100.00
56198;BME280;42700;42.524;12.052;2023-05-12T05:42:30;99971.94;;;17.50;100.00
56198;BME280;42700;42.524;12.052;2023-05-12T05:44:56;99199.66;;;17.33;100.00
56198;BME280;42700;42.524;12.052;2023-05-12T05:47:21;99111.25;;;17.31;100.00
56198;BME280;42700;42.524;12.052;2023-05-12T05:49:47;99399.56;;;17.45;100.00
56198;BME280;42700;42.524;12.052;2023-05-12T05:52:12;99246.50;;;17.45;100.00
56198;BME280;42700;42.524;12.052;2023-05-12T05:54:37;99553.75;;;17.59;100.00
56198;BME280;42700;42.524;12.052;2023-05-12T05:57:03;99670.06;;;17.68;100.00
56198;BME280;42700;42.524;12.052;2023-05-12T05:59:29;99436.97;;;17.70;100.00
56198;BME280;42700;42.524;12.052;2023-05-12T06:01:54;99399.72;;;17.67;100.00
56198;BME280;42700;42.524;12.052;2023-05-12T06:04:19;99118.22;;;17.62;100.00
56198;BME280;42700;42.524;12.052;2023-05-12T06:06:45;99573.25;;;17.84;100.00
56198;BME280;42700;42.524;12.052;2023-05-12T06:09:10;99618.56;;;17.96;100.00
56198;BME280;42700;42.524;12.052;2023-05-12T06:11:37;99569.78;;;17.99;100.00
56198;BME280;42700;42.524;12.052;2023-05-12T06:14:03;100149.44;;;18.24;100.00
56198;BME280;42700;42.524;12.052;2023-05-12T06:16:28;100186.09;;;18.34;100.00
56198;BME280;42700;42.524;12.052;2023-05-12T06:18:54;99772.97;;;18.24;100.00
56198;BME280;42700;42.524;12.052;2023-05-12T06:21:19;99799.16;;;18.31;100.00
56198;BME280;42700;42.524;12.052;2023-05-12T06:23:45;99895.94;;;18.39;100.00
56198;BME280;42700;42.524;12.052;2023-05-12T06:26:10;99382.44;;;18.22;100.00
56198;BME280;42700;42.524;12.052;2023-05-12T06:28:36;99016.75;;;18.16;100.00
56198;BME280;42700;42.524;12.052;2023-05-12T06:31:01;99402.72;;;18.25;100.00
56198;BME280;42700;42.524;12.052;2023-05-12T06:33:27;100240.94;;;18.57;100.00
56198;BME280;42700;42.524;12.052;2023-05-12T06:35:52;99818.91;;;18.46;100.00
56198;BME280;42700;42.524;12.052;2023-05-12T06:38:17;100043.84;;;18.55;100.00
56198;BME280;42700;42.524;12.052;2023-05-12T06:40:43;100014.25;;;18.55;100.00
56198;BME280;42700;42.524;12.052;2023-05-12T06:43:08;99953.22;;;18.56;100.00
56198;BME280;42700;42.524;12.052;2023-05-12T06:45:34;99600.38;;;18.44;100.00
56198;BME280;42700;42.524;12.052;2023-05-12T06:47:59;99976.75;;;18.54;100.00
56198;BME280;42700;42.524;12.052;2023-05-12T06:50:25;100018.59;;;18.56;100.00
56198;BME280;42700;42.524;12.052;2023-05-12T06:52:51;100401.38;;;18.67;100.00
56198;BME280;42700;42.524;12.052;2023-05-12T06:55:17;100901.56;;;18.89;100.00
56198;BME280;42700;42.524;12.052;2023-05-12T06:57:44;100555.38;;;18.78;100.00
56198;BME280;42700;42.524;12.052;2023-05-12T07:00:09;100260.28;;;18.69;100.00
56198;BME280;42700;42.524;12.052;2023-05-12T07:02:35;100237.38;;;18.65;100.00
56198;BME280;42700;42.524;12.052;2023-05-12T07:05:00;99996.44;;;18.54;100.00
56198;BME280;42700;42.524;12.052;2023-05-12T07:07:26;100494.56;;;18.68;100.00
56198;BME280;42700;42.524;12.052;2023-05-12T07:09:52;100626.13;;;18.71;100.00
56198;BME280;42700;42.524;12.052;2023-05-12T07:12:17;100948.03;;;18.81;100.00
56198;BME280;42700;42.524;12.052;2023-05-12T07:14:43;100803.84;;;18.79;100.00
56198;BME280;42700;42.524;12.052;2023-05-12T07:17:08;101318.34;;;18.95;100.00
56198;BME280;42700;42.524;12.052;2023-05-12T07:19:33;101055.03;;;18.89;100.00
56198;BME280;42700;42.524;12.052;2023-05-12T07:21:59;100978.28;;;18.85;100.00
56198;BME280;42700;42.524;12.052;2023-05-12T07:24:25;100992.28;;;18.89;100.00
56198;BME280;42700;42.524;12.052;2023-05-12T07:26:52;100991.41;;;18.88;100.00
56198;BME280;42700;42.524;12.052;2023-05-12T07:29:17;100276.41;;;18.69;100.00
56198;BME280;42700;42.524;12.052;2023-05-12T07:31:43;99948.31;;;18.59;100.00
56198;BME280;42700;42.524;12.052;2023-05-12T07:34:08;100719.66;;;18.87;100.00
56198;BME280;42700;42.524;12.052;2023-05-12T07:36:34;100749.09;;;18.88;100.00
56198;BME280;42700;42.524;12.052;2023-05-12T07:38:59;102130.19;;;19.36;100.00
56198;BME280;42700;42.524;12.052;2023-05-12T07:41:25;103030.25;;;19.80;100.00
56198;BME280;42700;42.524;12.052;2023-05-12T07:43:50;101988.00;;;19.50;100.00
56198;BME280;42700;42.524;12.052;2023-05-12T07:46:16;101077.53;;;19.26;100.00
56198;BME280;42700;42.524;12.052;2023-05-12T07:48:42;101901.47;;;19.53;100.00
56198;BME280;42700;42.524;12.052;2023-05-12T07:51:07;102531.66;;;19.73;100.00
56198;BME280;42700;42.524;12.052;2023-05-12T07:53:33;102440.47;;;19.79;100.00
56198;BME280;42700;42.524;12.052;2023-05-12T07:55:59;102682.78;;;19.85;100.00
56198;BME280;42700;42.524;12.052;2023-05-12T07:58:24;102181.28;;;19.82;100.00
56198;BME280;42700;42.524;12.052;2023-05-12T08:00:50;102669.94;;;20.00;100.00
56198;BME280;42700;42.524;12.052;2023-05-12T08:03:15;102647.00;;;20.05;100.00
56198;BME280;42700;42.524;12.052;2023-05-12T08:05:41;102915.66;;;20.22;100.00
56198;BME280;42700;42.524;12.052;2023-05-12T08:08:07;101571.50;;;19.85;100.00
56198;BME280;42700;42.524;12.052;2023-05-12T08:10:40;102007.22;;;19.99;100.00
56198;BME280;42700;42.524;12.052;2023-05-12T08:13:05;103056.09;;;20.46;100.00
56198;BME280;42700;42.524;12.052;2023-05-12T08:15:31;103856.78;;;20.86;100.00
56198;BME280;42700;42.524;12.052;2023-05-12T08:17:56;103193.06;;;20.70;100.00
56198;BME280;42700;42.524;12.052;2023-05-12T08:20:21;102815.34;;;20.64;100.00
56198;BME280;42700;42.524;12.052;2023-05-12T08:22:47;103077.19;;;20.78;100.00
56198;BME280;42700;42.524;12.052;2023-05-12T08:25:15;103558.25;;;21.04;100.00
56198;BME280;42700;42.524;12.052;2023-05-12T08:27:40;104361.69;;;21.44;100.00
56198;BME280;42700;42.524;12.052;2023-05-12T08:30:06;103601.38;;;21.33;100.00
56198;BME280;42700;42.524;12.052;2023-05-12T08:32:32;102644.66;;;21.04;100.00
56198;BME280;42700;42.524;12.052;2023-05-12T08:34:57;102297.56;;;20.97;100.00
56198;BME280;42700;42.524;12.052;2023-05-12T08:37:23;103537.56;;;21.43;100.00
56198;BME280;42700;42.524;12.052;2023-05-12T08:39:48;102658.16;;;21.15;100.00
56198;BME280;42700;42.524;12.052;2023-05-12T08:45:11;101388.91;;;20.78;100.00
56198;BME280;42700;42.524;12.052;2023-05-12T08:47:37;101244.69;;;20.71;100.00
56198;BME280;42700;42.524;12.052;2023-05-12T08:50:03;100577.97;;;20.45;100.00
56198;BME280;42700;42.524;12.052;2023-05-12T08:52:31;99879.13;;;20.22;100.00
56198;BME280;42700;42.524;12.052;2023-05-12T08:54:57;99523.00;;;20.08;100.00
56198;BME280;42700;42.524;12.052;2023-05-12T08:57:22;99459.72;;;20.04;100.00
56198;BME280;42700;42.524;12.052;2023-05-12T08:59:48;100145.19;;;20.23;100.00
56198;BME280;42700;42.524;12.052;2023-05-12T09:02:17;100592.28;;;20.45;100.00
56198;BME280;42700;42.524;12.052;2023-05-12T09:04:42;101302.41;;;20.70;100.00
56198;BME280;42700;42.524;12.052;2023-05-12T09:07:08;100988.44;;;20.60;100.00
56198;BME280;42700;42.524;12.052;2023-05-12T09:09:34;100492.44;;;20.45;100.00
56198;BME280;42700;42.524;12.052;2023-05-12T09:12:01;99606.09;;;20.20;100.00
56198;BME280;42700;42.524;12.052;2023-05-12T09:14:28;99686.72;;;20.15;100.00
56198;BME280;42700;42.524;12.052;2023-05-12T09:16:59;98948.06;;;19.93;100.00
56198;BME280;42700;42.524;12.052;2023-05-12T09:19:25;98038.75;;;19.57;100.00
56198;BME280;42700;42.524;12.052;2023-05-12T09:21:51;97517.47;;;19.38;100.00
56198;BME280;42700;42.524;12.052;2023-05-12T09:24:17;97318.56;;;19.24;100.00
56198;BME280;42700;42.524;12.052;2023-05-12T09:26:51;96523.94;;;18.96;100.00
56198;BME280;42700;42.524;12.052;2023-05-12T09:29:18;96310.81;;;18.79;100.00
56198;BME280;42700;42.524;12.052;2023-05-12T09:31:50;96172.03;;;18.68;100.00
56198;BME280;42700;42.524;12.052;2023-05-12T09:34:16;95965.59;;;18.54;100.00
56198;BME280;42700;42.524;12.052;2023-05-12T09:36:42;95529.78;;;18.37;100.00
56198;BME280;42700;42.524;12.052;2023-05-12T09:39:08;95454.09;;;18.30;100.00
56198;BME280;42700;42.524;12.052;2023-05-12T09:41:40;95688.88;;;18.29;100.00
56198;BME280;42700;42.524;12.052;2023-05-12T09:44:07;95817.28;;;18.26;100.00
56198;BME280;42700;42.524;12.052;2023-05-12T09:46:33;95901.94;;;18.24;100.00
56198;BME280;42700;42.524;12.052;2023-05-12T09:48:59;95784.81;;;18.18;100.00
56198;BME280;42700;42.524;12.052;2023-05-12T09:51:25;96040.78;;;18.23;100.00
56198;BME280;42700;42.524;12.052;2023-05-12T09:53:51;96017.97;;;18.21;100.00
56198;BME280;42700;42.524;12.052;2023-05-12T09:56:17;96295.50;;;18.26;100.00
56198;BME280;42700;42.524;12.052;2023-05-12T09:58:43;96577.16;;;18.35;100.00
56198;BME280;42700;42.524;12.052;2023-05-12T10:01:16;97046.09;;;18.49;100.00
56198;BME280;42700;42.524;12.052;2023-05-12T10:03:44;97618.06;;;18.66;100.00
56198;BME280;42700;42.524;12.052;2023-05-12T10:06:11;98174.06;;;18.84;100.00
56198;BME280;42700;42.524;12.052;2023-05-12T10:08:50;98758.56;;;19.06;100.00
56198;BME280;42700;42.524;12.052;2023-05-12T10:11:17;99328.22;;;19.28;100.00
56198;BME280;42700;42.524;12.052;2023-05-12T10:13:43;100294.91;;;19.63;100.00
56198;BME280;42700;42.524;12.052;2023-05-12T10:16:09;101725.56;;;20.21;100.00
56198;BME280;42700;42.524;12.052;2023-05-12T10:18:35;102197.41;;;20.46;100.00
56198;BME280;42700;42.524;12.052;2023-05-12T10:21:01;103183.78;;;20.87;100.00
56198;BME280;42700;42.524;12.052;2023-05-12T10:23:27;104733.94;;;21.50;100.00
56198;BME280;42700;42.524;12.052;2023-05-12T10:25:54;106277.13;;;22.28;100.00
56198;BME280;42700;42.524;12.052;2023-05-12T10:28:26;106563.72;;;22.56;100.00
56198;BME280;42700;42.524;12.052;2023-05-12T10:30:53;107967.34;;;23.16;100.00
56198;BME280;42700;42.524;12.052;2023-05-12T10:33:19;109543.66;;;23.94;100.00
56198;BME280;42700;42.524;12.052;2023-05-12T10:35:45;108336.44;;;23.77;100.00
56198;BME280;42700;42.524;12.052;2023-05-12T10:38:11;107902.59;;;23.67;100.00
56198;BME280;42700;42.524;12.052;2023-05-12T10:40:53;109548.81;;;24.43;100.00
56198;BME280;42700;42.524;12.052;2023-05-12T10:43:25;110016.84;;;24.88;100.00
56198;BME280;42700;42.524;12.052;2023-05-12T10:46:06;110745.47;;;25.37;100.00
56198;BME280;42700;42.524;12.052;2023-05-12T10:48:32;111051.84;;;25.71;100.00
56198;BME280;42700;42.524;12.052;2023-05-12T10:51:07;110519.00;;;25.69;100.00
56198;BME280;42700;42.524;12.052;2023-05-12T10:53:33;110425.56;;;25.81;100.00
56198;BME280;42700;42.524;12.052;2023-05-12T10:56:02;111599.56;;;26.28;100.00
56198;BME280;42700;42.524;12.052;2023-05-12T10:58:28;110629.94;;;26.11;100.00
56198;BME280;42700;42.524;12.052;2023-05-12T11:00:54;111054.47;;;26.33;100.00
56198;BME280;42700;42.524;12.052;2023-05-12T11:03:23;111610.56;;;26.57;100.00
56198;BME280;42700;42.524;12.052;2023-05-12T11:05:59;109379.13;;;25.96;100.00
56198;BME280;42700;42.524;12.052;2023-05-12T11:08:24;106564.66;;;25.10;100.00
56198;BME280;42700;42.524;12.052;2023-05-12T11:10:50;104649.19;;;24.44;100.00
56198;BME280;42700;42.524;12.052;2023-05-12T11:13:15;103588.47;;;23.97;100.00
56198;BME280;42700;42.524;12.052;2023-05-12T11:15:43;103523.78;;;23.91;100.00
56198;BME280;42700;42.524;12.052;2023-05-12T11:18:09;103145.94;;;23.74;100.00
56198;BME280;42700;42.524;12.052;2023-05-12T11:20:36;101911.66;;;23.34;100.00
56198;BME280;42700;42.524;12.052;2023-05-12T11:23:02;103762.00;;;23.89;100.00
56198;BME280;42700;42.524;12.052;2023-05-12T11:25:28;104204.75;;;24.00;100.00
56198;BME280;42700;42.524;12.052;2023-05-12T11:27:54;102569.13;;;23.51;100.00
56198;BME280;42700;42.524;12.052;2023-05-12T11:30:19;101506.06;;;23.15;100.00
56198;BME280;42700;42.524;12.052;2023-05-12T11:32:45;101402.34;;;23.04;100.00
56198;BME280;42700;42.524;12.052;2023-05-12T11:35:11;101042.97;;;22.87;100.00
56198;BME280;42700;42.524;12.052;2023-05-12T11:37:41;101563.59;;;23.00;100.00
56198;BME280;42700;42.524;12.052;2023-05-12T11:40:25;103617.03;;;23.67;100.00
56198;BME280;42700;42.524;12.052;2023-05-12T11:42:50;102480.19;;;23.35;100.00
56198;BME280;42700;42.524;12.052;2023-05-12T11:45:25;103551.88;;;23.67;100.00
56198;BME280;42700;42.524;12.052;2023-05-12T11:48:03;104017.88;;;23.80;100.00
56198;BME280;42700;42.524;12.052;2023-05-12T11:50:29;105472.81;;;24.30;100.00
56198;BME280;42700;42.524;12.052;2023-05-12T11:52:55;103843.91;;;23.83;100.00
56198;BME280;42700;42.524;12.052;2023-05-12T11:55:22;104743.66;;;24.12;100.00
56198;BME280;42700;42.524;12.052;2023-05-12T11:57:58;104868.19;;;24.20;100.00
56198;BME280;42700;42.524;12.052;2023-05-12T12:00:28;102718.06;;;23.54;100.00
56198;BME280;42700;42.524;12.052;2023-05-12T12:03:03;101270.91;;;23.00;100.00
56198;BME280;42700;42.524;12.052;2023-05-12T12:05:29;101008.44;;;22.89;100.00
56198;BME280;42700;42.524;12.052;2023-05-12T12:08:02;101577.66;;;23.04;100.00
56198;BME280;42700;42.524;12.052;2023-05-12T12:10:28;102027.16;;;23.09;100.00
56198;BME280;42700;42.524;12.052;2023-05-12T12:12:54;102884.56;;;23.22;100.00
56198;BME280;42700;42.524;12.052;2023-05-12T12:15:19;105491.50;;;24.19;100.00
56198;BME280;42700;42.524;12.052;2023-05-12T12:17:44;106787.50;;;24.67;100.00
56198;BME280;42700;42.524;12.052;2023-05-12T12:20:10;106385.94;;;24.63;100.00
56198;BME280;42700;42.524;12.052;2023-05-12T12:22:35;107980.34;;;25.20;100.00
56198;BME280;42700;42.524;12.052;2023-05-12T12:25:01;106696.09;;;24.88;100.00
56198;BME280;42700;42.524;12.052;2023-05-12T12:27:27;104702.22;;;24.23;100.00
56198;BME280;42700;42.524;12.052;2023-05-12T12:29:53;105126.25;;;24.37;100.00
56198;BME280;42700;42.524;12.052;2023-05-12T12:32:18;105133.63;;;24.35;100.00
56198;BME280;42700;42.524;12.052;2023-05-12T12:34:44;107657.28;;;25.13;100.00